Time;durP1;ratioP1;P1;durP2;ratioP2;P2;SDS_P1;SDS_P2;PMS_P1;PMS_P2;Temp;Humidity;BMP_temperature;BMP_pressure;BME280_temperature;BME280_humidity;BME280_pressure;Samples;Min_cycle;Max_cycle;Signal;HPM_P1;HPM_P2
2022/05/31 04:06:16;;;;;;;8.35;5.85;;;;;;;11.27;100.00;100476.31;5358696;33;34273;-89
2022/05/31 04:09:20;;;;;;;7.97;5.68;;;;;;;11.48;100.00;100472.09;5360217;33;34528;-89
2022/05/31 04:12:22;;;;;;;8.18;5.37;;;;;;;11.63;100.00;100480.22;5361164;33;33937;-86
2022/05/31 04:15:28;;;;;;;7.37;5.25;;;;;;;11.76;99.52;100478.59;5360513;33;34505;-86
2022/05/31 04:18:31;;;;;;;8.38;5.70;;;;;;;11.92;99.65;100482.19;5360214;33;34010;-86
2022/05/31 04:21:34;;;;;;;8.23;5.72;;;;;;;12.06;97.27;100481.37;5360064;33;33801;-85
2022/05/31 04:24:37;;;;;;;6.97;5.30;;;;;;;12.19;96.29;100476.12;5359719;33;33946;-85
2022/05/31 04:27:45;;;;;;;6.97;5.43;;;;;;;12.36;95.34;100479.50;5360420;33;32211;-85
2022/05/31 04:30:49;;;;;;;7.43;5.57;;;;;;;12.44;94.71;100476.69;5359798;33;33658;-85
2022/05/31 04:33:53;;;;;;;7.18;5.45;;;;;;;12.57;93.60;100483.28;5360121;33;34060;-85
2022/05/31 04:36:57;;;;;;;5.93;4.80;;;;;;;12.63;93.08;100475.25;5360262;33;33992;-85
2022/05/31 04:40:04;;;;;;;6.12;4.53;;;;;;;12.73;92.72;100475.00;5362417;33;34457;-85
2022/05/31 04:43:07;;;;;;;6.72;5.10;;;;;;;12.86;91.78;100482.41;5362338;33;33683;-85
2022/05/31 04:46:15;;;;;;;6.32;4.60;;;;;;;12.97;91.74;100481.91;5362113;33;34007;-85
2022/05/31 04:49:18;;;;;;;7.40;4.72;;;;;;;13.22;89.72;100477.00;5362248;33;34729;-85
2022/05/31 04:52:22;;;;;;;4.68;4.18;;;;;;;13.33;89.29;100479.19;5361769;33;34864;-85
2022/05/31 04:55:25;;;;;;;5.20;4.60;;;;;;;13.50;88.21;100476.22;5362184;33;34079;-84
2022/05/31 04:58:29;;;;;;;6.37;4.55;;;;;;;13.65;88.63;100481.56;5362121;33;34096;-84
2022/05/31 05:01:35;;;;;;;5.70;4.55;;;;;;;13.66;86.88;100478.66;5362360;33;34800;-85
2022/05/31 05:04:39;;;;;;;4.65;4.18;;;;;;;13.79;86.05;100478.75;5363470;33;34012;-84
2022/05/31 05:07:42;;;;;;;5.28;4.60;;;;;;;13.91;84.46;100475.53;5360313;33;34707;-84
2022/05/31 05:10:46;;;;;;;7.03;4.40;;;;;;;14.02;84.62;100470.41;5361619;33;33641;-84
2022/05/31 05:13:50;;;;;;;4.50;4.10;;;;;;;14.20;83.53;100460.91;5348435;33;33236;-84
2022/05/31 05:16:56;;;;;;;4.57;4.18;;;;;;;14.28;83.54;100466.19;5361699;33;32432;-84
2022/05/31 05:19:59;;;;;;;4.87;4.12;;;;;;;14.42;82.69;100472.47;5361280;33;34363;-84
2022/05/31 05:23:04;;;;;;;5.70;5.10;;;;;;;14.69;81.92;100474.31;5361418;33;34352;-84
2022/05/31 05:26:08;;;;;;;5.15;4.30;;;;;;;14.80;80.92;100472.06;5361279;33;34217;-84
2022/05/31 05:32:32;;;;;;;4.57;3.70;;;;;;;15.11;79.89;100472.34;5346732;33;34823;-84
2022/05/31 05:35:36;;;;;;;5.75;4.53;;;;;;;15.30;78.58;100475.34;5350863;33;34620;-84
2022/05/31 05:38:39;;;;;;;7.22;5.00;;;;;;;15.38;77.21;100477.81;5361070;33;34381;-84
2022/05/31 05:41:48;;;;;;;7.20;5.05;;;;;;;15.45;76.45;100480.56;5361214;33;34065;-85
2022/05/31 05:44:52;;;;;;;5.55;4.43;;;;;;;15.54;75.77;100484.75;5348012;33;33075;-88
2022/05/31 05:47:54;;;;;;;5.90;4.40;;;;;;;15.56;75.27;100478.06;5360802;33;35337;-88
2022/05/31 05:51:13;;;;;;;5.90;4.50;;;;;;;15.57;73.84;100473.47;5360976;33;34790;-85
2022/05/31 05:54:24;;;;;;;4.15;3.75;;;;;;;15.71;74.13;100472.47;5361483;33;34048;-84
2022/05/31 05:57:32;;;;;;;6.35;4.28;;;;;;;15.74;73.18;100466.63;5360813;33;34156;-84
2022/05/31 06:01:00;;;;;;;5.05;3.83;;;;;;;15.91;71.35;100469.72;5361098;33;33764;-84
2022/05/31 06:04:27;;;;;;;4.10;3.67;;;;;;;15.85;72.25;100476.84;5360755;33;34230;-84
2022/05/31 06:07:35;;;;;;;5.03;3.22;;;;;;;15.99;71.68;100474.94;5353862;33;33585;-84
2022/05/31 06:10:48;;;;;;;4.45;3.25;;;;;;;16.11;70.78;100469.69;5361151;33;34281;-84
2022/05/31 06:13:51;;;;;;;3.05;2.75;;;;;;;16.13;69.88;100474.91;5365471;33;34546;-84
2022/05/31 06:17:11;;;;;;;3.58;2.92;;;;;;;16.22;68.92;100476.38;5372584;33;33752;-83
2022/05/31 06:20:20;;;;;;;3.22;2.92;;;;;;;16.47;68.04;100482.78;5361452;33;33981;-84
2022/05/31 06:23:23;;;;;;;2.75;2.55;;;;;;;16.66;66.54;100482.91;5359929;33;34139;-84
2022/05/31 06:26:27;;;;;;;5.60;2.70;;;;;;;16.60;65.88;100484.59;5359953;33;34838;-84
2022/05/31 06:29:30;;;;;;;3.20;2.90;;;;;;;16.62;65.96;100482.53;5359747;33;33608;-84
2022/05/31 06:32:32;;;;;;;3.08;2.75;;;;;;;16.75;65.35;100485.16;5354775;33;34250;-84
2022/05/31 06:35:36;;;;;;;3.15;2.25;;;;;;;17.08;63.96;100488.81;5356007;33;34147;-87
2022/05/31 06:38:40;;;;;;;2.28;2.08;;;;;;;17.12;62.57;100487.34;5355637;33;35377;-88
2022/05/31 06:41:43;;;;;;;2.33;2.10;;;;;;;17.30;63.19;100484.69;5360078;33;35226;-88
2022/05/31 06:44:47;;;;;;;2.53;1.98;;;;;;;17.55;62.29;100489.34;5362099;33;33675;-88
2022/05/31 06:47:52;;;;;;;2.75;2.12;;;;;;;17.67;60.49;100488.41;5361348;33;31869;-85
2022/05/31 06:50:57;;;;;;;2.53;1.95;;;;;;;17.74;60.55;100498.41;5362319;33;32596;-84
2022/05/31 06:57:25;;;;;;;3.75;2.30;;;;;;;18.01;58.36;100499.03;5356633;33;32556;-84
2022/05/31 07:00:28;;;;;;;2.87;2.37;;;;;;;18.22;59.20;100493.19;5358987;33;33897;-84
2022/05/31 07:03:31;;;;;;;3.78;2.40;;;;;;;18.44;57.99;100499.03;5347169;33;32521;-84
2022/05/31 07:06:34;;;;;;;2.72;2.53;;;;;;;18.50;57.19;100497.28;5363202;33;34291;-84
2022/05/31 07:09:40;;;;;;;3.10;2.65;;;;;;;18.37;57.33;100495.56;5360473;33;34429;-84
2022/05/31 07:12:45;;;;;;;2.53;2.33;;;;;;;18.29;56.80;100490.38;5359033;33;34275;-84
2022/05/31 07:15:52;;;;;;;1.90;1.80;;;;;;;18.43;56.87;100483.75;5356380;33;34932;-84
2022/05/31 07:19:19;;;;;;;1.85;1.75;;;;;;;18.70;56.27;100491.59;5359921;33;33833;-84
2022/05/31 07:22:22;;;;;;;1.65;1.55;;;;;;;18.80;55.68;100486.47;5350309;33;34412;-84
2022/05/31 07:25:26;;;;;;;1.95;1.80;;;;;;;18.92;54.18;100490.06;5355396;33;33498;-84
2022/05/31 07:28:30;;;;;;;1.92;1.80;;;;;;;19.12;53.59;100492.53;5344327;33;32285;-84
2022/05/31 07:31:36;;;;;;;2.33;1.60;;;;;;;19.44;53.79;100489.56;5354235;33;33581;-84
2022/05/31 07:34:58;;;;;;;2.03;1.50;;;;;;;19.57;51.94;100489.34;5355715;33;34671;-84
2022/05/31 07:38:02;;;;;;;1.58;1.42;;;;;;;19.68;51.34;100502.22;5364616;33;33513;-84
2022/05/31 07:41:05;;;;;;;3.65;1.50;;;;;;;19.77;50.05;100501.87;5361186;33;33244;-84
2022/05/31 07:44:10;;;;;;;2.37;1.62;;;;;;;19.87;50.99;100496.69;5372367;33;34151;-83
2022/05/31 07:47:13;;;;;;;2.12;1.92;;;;;;;19.90;49.65;100486.09;5357516;33;35098;-83
2022/05/31 07:50:16;;;;;;;2.70;1.60;;;;;;;19.85;50.31;100493.34;5355311;33;34467;-83
2022/05/31 07:53:22;;;;;;;2.75;2.00;;;;;;;19.78;51.12;100490.72;5361634;33;34236;-87
2022/05/31 07:56:28;;;;;;;3.47;1.90;;;;;;;20.01;50.59;100497.28;5357915;33;32574;-87
2022/05/31 07:59:35;;;;;;;3.10;2.30;;;;;;;20.24;50.67;100488.22;5359371;33;34207;-84
2022/05/31 08:02:39;;;;;;;2.47;2.28;;;;;;;20.36;50.20;100497.28;5360357;33;34022;-84
2022/05/31 08:05:42;;;;;;;3.28;2.33;;;;;;;20.49;49.34;100501.63;5356977;33;35182;-84
2022/05/31 08:08:45;;;;;;;2.45;2.25;;;;;;;20.30;49.18;100493.59;5364441;33;33913;-84
2022/05/31 08:11:48;;;;;;;2.35;2.10;;;;;;;20.30;49.71;100492.72;5356700;33;33990;-84
2022/05/31 08:14:56;;;;;;;2.33;2.12;;;;;;;20.43;50.24;100497.97;5356659;33;34377;-84
2022/05/31 08:17:59;;;;;;;2.80;1.65;;;;;;;20.71;48.28;100499.13;5351741;33;33672;-84
2022/05/31 08:21:07;;;;;;;2.85;1.80;;;;;;;20.39;49.53;100489.41;5381576;33;33948;-84
2022/05/31 08:24:11;;;;;;;2.20;1.90;;;;;;;;;;5366565;33;35397;-84
2022/05/31 08:27:34;;;;;;;2.58;2.10;;;;;;;20.68;47.51;100499.59;5358246;33;34675;-84
2022/05/31 08:30:37;;;;;;;2.28;2.12;;;;;;;19.96;49.20;100502.63;5358944;33;33951;-84
2022/05/31 08:33:40;;;;;;;3.47;2.30;;;;;;;19.72;50.88;100507.25;5352176;33;33803;-84
2022/05/31 08:36:44;;;;;;;2.10;1.80;;;;;;;20.13;50.04;100501.66;5354303;33;35058;-84
2022/05/31 08:39:46;;;;;;;2.92;1.92;;;;;;;20.26;49.86;100497.03;5341136;33;33925;-84
2022/05/31 08:42:56;;;;;;;2.35;2.15;;;;;;;20.63;49.34;100505.00;5335445;33;33075;-83
2022/05/31 08:46:07;;;;;;;1.62;1.52;;;;;;;21.36;46.45;100504.28;5358411;33;34787;-84
2022/05/31 08:49:19;;;;;;;2.17;1.70;;;;;;;21.49;46.54;100508.59;5347289;33;33352;-84
2022/05/31 08:52:28;;;;;;;2.17;1.95;;;;;;;21.35;47.30;100515.44;5356884;33;34357;-84
2022/05/31 08:59:11;;;;;;;2.00;1.83;;;;;;;20.95;47.44;100494.44;5348760;33;32938;-84
2022/05/31 09:02:25;;;;;;;2.12;1.87;;;;;;;21.46;47.13;100493.47;5357985;33;34232;-85
2022/05/31 09:05:48;;;;;;;2.47;1.90;;;;;;;21.70;45.60;100498.81;5356289;33;34300;-84
2022/05/31 09:09:03;;;;;;;1.70;1.45;;;;;;;21.58;45.60;100498.06;5358126;33;33589;-85
2022/05/31 09:12:36;;;;;;;2.45;1.90;;;;;;;21.86;45.57;100492.50;5357142;33;34023;-85
2022/05/31 09:15:59;;;;;;;1.65;1.55;;;;;;;21.65;45.52;100482.31;5356601;33;34042;-84
2022/05/31 09:19:09;;;;;;;1.50;1.40;;;;;;;21.64;45.47;100486.09;5341530;33;33735;-84
2022/05/31 09:22:13;;;;;;;2.05;1.60;;;;;;;21.73;45.67;100490.09;5354686;33;33954;-84
2022/05/31 09:25:16;;;;;;;2.83;1.48;;;;;;;21.61;45.96;100483.88;5346454;33;32518;-84
2022/05/31 09:28:34;;;;;;;6.22;1.98;;;;;;;21.73;45.71;100485.47;5360409;33;34133;-84
2022/05/31 09:32:28;;;;;;;1.92;1.62;;;;;;;21.81;45.56;100486.94;5360088;33;33989;-84
2022/05/31 09:35:41;;;;;;;2.15;1.92;;;;;;;21.83;44.87;100487.53;5342644;33;34000;-85
2022/05/31 09:39:03;;;;;;;1.83;1.73;;;;;;;21.64;45.90;100480.63;5360902;33;34822;-85
2022/05/31 09:42:20;;;;;;;2.03;1.62;;;;;;;21.85;45.86;100487.28;5361228;33;34114;-84
2022/05/31 09:45:23;;;;;;;2.65;1.90;;;;;;;21.66;45.97;100479.31;5364323;33;34750;-84
2022/05/31 09:48:27;;;;;;;5.75;1.70;;;;;;;22.10;45.57;100489.59;5362711;33;34746;-84
2022/05/31 09:51:40;;;;;;;2.95;2.42;;;;;;;22.48;44.35;100483.28;5363041;33;34489;-85
2022/05/31 09:59:09;;;;;;;3.05;1.80;;;;;;;22.87;43.62;100475.84;5281489;33;34243;-88
2022/05/31 10:02:24;;;;;;;1.83;1.73;;;;;;;22.85;43.19;100475.25;5300547;33;33356;-85
2022/05/31 10:05:27;;;;;;;1.87;1.62;;;;;;;22.77;44.23;100475.69;5347788;33;34109;-85
2022/05/31 10:08:34;;;;;;;2.30;1.80;;;;;;;22.46;44.32;100470.91;5358899;33;34118;-84
2022/05/31 10:11:44;;;;;;;1.80;1.70;;;;;;;22.26;44.99;100476.94;5351938;33;33775;-84
2022/05/31 10:14:50;;;;;;;3.37;1.30;;;;;;;22.25;45.24;100473.38;5359257;33;34129;-84
2022/05/31 10:18:00;;;;;;;1.45;1.35;;;;;;;22.47;45.39;100469.84;5359494;33;34702;-84
2022/05/31 10:21:07;;;;;;;2.22;1.50;;;;;;;22.78;44.60;100465.53;5358911;33;34480;-84
2022/05/31 10:24:16;;;;;;;2.67;1.90;;;;;;;23.14;43.51;100463.22;5357694;33;34119;-84
2022/05/31 10:27:26;;;;;;;3.00;1.75;;;;;;;23.33;43.18;100469.19;5346763;33;33137;-84
2022/05/31 10:30:36;;;;;;;1.50;1.40;;;;;;;23.39;43.22;100455.22;5346332;33;32535;-84
2022/05/31 10:33:51;;;;;;;1.60;1.50;;;;;;;23.75;43.66;100461.03;5346278;33;34666;-84
2022/05/31 10:36:56;;;;;;;2.03;1.65;;;;;;;23.93;42.70;100465.31;5345467;33;32625;-84
2022/05/31 10:40:04;;;;;;;3.95;1.70;;;;;;;24.01;41.92;100461.25;5359387;33;33697;-84
2022/05/31 10:43:29;;;;;;;1.85;1.75;;;;;;;24.48;40.98;100460.44;5364200;33;33671;-84
2022/05/31 10:46:34;;;;;;;1.87;1.75;;;;;;;24.55;39.84;100461.84;5359635;33;33916;-84
2022/05/31 10:49:39;;;;;;;2.95;2.08;;;;;;;25.15;40.30;100458.75;5366694;33;34479;-84
2022/05/31 10:53:03;;;;;;;4.47;2.20;;;;;;;25.71;37.58;100454.13;5363095;33;34055;-88
2022/05/31 10:56:32;;;;;;;2.70;2.05;;;;;;;26.35;37.50;100444.34;5352343;33;33194;-84
2022/05/31 10:59:41;;;;;;;2.22;1.92;;;;;;;26.66;35.85;100441.50;5363559;33;34293;-83
2022/05/31 11:03:05;;;;;;;4.05;2.20;;;;;;;26.14;36.61;100454.63;5362137;33;34353;-83
2022/05/31 11:06:34;;;;;;;2.50;2.08;;;;;;;25.88;37.54;100444.72;5362060;33;33511;-83
2022/05/31 11:13:41;;;;;;;2.60;2.35;;;;;;;26.81;35.83;100446.94;5358692;33;33858;-83
2022/05/31 11:17:11;;;;;;;2.70;2.33;;;;;;;25.67;37.71;100454.94;5361239;33;34102;-88
2022/05/31 11:20:19;;;;;;;2.58;1.98;;;;;;;25.61;37.89;100432.03;5359988;33;34201;-84
2022/05/31 11:23:47;;;;;;;6.15;2.87;;;;;;;26.85;34.64;100430.59;5359320;33;33805;-83
2022/05/31 11:26:58;;;;;;;3.08;2.30;;;;;;;27.74;34.97;100430.53;5360563;33;33743;-84
2022/05/31 11:30:25;;;;;;;3.62;2.45;;;;;;;28.77;32.90;100428.28;5340540;33;33972;-84
2022/05/31 11:33:31;;;;;;;;;;;;;;;29.52;31.56;100419.13;5365001;33;33933;-84
2022/05/31 11:36:56;;;;;;;5.40;2.80;;;;;;;30.55;29.08;100411.66;5363919;33;32730;-84
2022/05/31 11:40:25;;;;;;;3.28;2.33;;;;;;;30.82;29.84;100419.94;5362729;33;33563;-84
2022/05/31 11:43:46;;;;;;;3.10;2.40;;;;;;;30.99;29.07;100410.13;5385370;27;34066;-84
2022/05/31 11:47:12;;;;;;;2.58;2.37;;;;;;;30.25;29.03;100414.75;5371889;33;34091;-84
2022/05/31 11:50:26;;;;;;;3.97;2.03;;;;;;;28.92;31.08;100411.41;5378259;33;33760;-89
2022/05/31 11:53:56;;;;;;;4.85;2.67;;;;;;;30.42;30.02;100416.06;5377609;33;34180;-85
2022/05/31 11:57:28;;;;;;;5.40;2.42;;;;;;;31.76;27.39;100409.87;5377483;33;34462;-85
2022/05/31 12:00:59;;;;;;;3.03;2.20;;;;;;;31.08;27.79;100409.06;5364530;33;33516;-85
2022/05/31 12:04:25;;;;;;;4.72;2.42;;;;;;;30.34;28.46;100409.31;5362000;33;33726;-84
2022/05/31 12:07:34;;;;;;;2.10;1.90;;;;;;;27.86;32.62;100400.56;5364496;33;32986;-84
2022/05/31 12:11:02;;;;;;;2.65;1.70;;;;;;;29.78;29.71;100396.50;5379154;33;35461;-85
2022/05/31 12:14:09;;;;;;;2.10;1.95;;;;;;;31.06;27.89;100399.37;5373113;33;33838;-89
2022/05/31 12:17:13;;;;;;;1.85;1.65;;;;;;;32.86;25.18;100393.37;5376698;33;33792;-84
2022/05/31 12:20:34;;;;;;;2.25;1.77;;;;;;;33.02;24.56;100390.94;5357939;33;33045;-85
2022/05/31 12:24:02;;;;;;;1.98;1.67;;;;;;;33.42;24.52;100375.63;5370019;33;35347;-85
2022/05/31 12:27:16;;;;;;;4.75;1.52;;;;;;;34.04;24.71;100377.09;5376746;33;35543;-85
2022/05/31 12:30:33;;;;;;;2.33;1.30;;;;;;;34.37;22.96;100365.28;5376438;33;33689;-85
2022/05/31 12:37:02;;;;;;;1.67;1.20;;;;;;;34.53;22.05;100374.69;5370487;33;35336;-84
2022/05/31 12:40:47;;;;;;;1.92;1.30;;;;;;;34.14;22.67;100359.16;5372896;33;34239;-85
2022/05/31 12:43:55;;;;;;;1.45;1.10;;;;;;;34.86;21.80;100357.19;5300860;33;36152;-85
2022/05/31 12:47:22;;;;;;;2.03;1.10;;;;;;;35.14;20.98;100353.84;5378037;33;33971;-85
2022/05/31 12:50:46;;;;;;;1.75;1.15;;;;;;;36.09;20.69;100352.75;5377437;33;33920;-85
2022/05/31 12:53:58;;;;;;;1.40;1.10;;;;;;;35.96;19.98;100342.72;5365622;33;32323;-85
2022/05/31 12:57:01;;;;;;;2.67;1.05;;;;;;;36.62;19.79;100340.78;5389890;33;34060;-85
2022/05/31 13:00:33;;;;;;;1.40;1.20;;;;;;;37.19;19.03;100337.69;5387936;33;34745;-85
2022/05/31 13:03:39;;;;;;;1.33;1.05;;;;;;;36.91;19.27;100337.66;5375696;33;33778;-85
2022/05/31 13:07:19;;;;;;;2.87;1.40;;;;;;;35.91;20.41;100336.53;5373358;33;160766;-85
2022/05/31 13:10:38;;;;;;;1.37;1.20;;;;;;;37.34;19.05;100335.25;5273268;33;32288;-89
2022/05/31 13:21:06;;;;;;;1.77;1.42;;;;;;;37.05;19.34;100319.63;5364082;27;35155;-85
2022/05/31 13:24:29;;;;;;;3.50;1.55;;;;;;;37.08;19.16;100319.72;5358978;33;33498;-85
2022/05/31 13:27:37;;;;;;;1.42;1.25;;;;;;;35.73;20.68;100316.31;5360443;33;34001;-85
2022/05/31 13:30:43;;;;;;;2.83;1.55;;;;;;;35.58;21.15;100309.44;5346862;33;33728;-85
2022/05/31 13:33:55;;;;;;;1.62;1.50;;;;;;;36.30;20.22;100307.78;5365101;33;34075;-84
2022/05/31 13:37:01;;;;;;;1.35;1.25;;;;;;;36.91;20.04;100298.37;5365189;33;34026;-85
2022/05/31 13:40:06;;;;;;;1.62;1.48;;;;;;;36.47;19.84;100294.66;5358923;33;33818;-86
2022/05/31 13:43:22;;;;;;;1.98;1.70;;;;;;;36.31;19.81;100295.41;5342054;33;32852;-85
2022/05/31 13:46:42;;;;;;;3.17;2.00;;;;;;;35.78;20.44;100302.91;5347546;33;33255;-85
2022/05/31 13:49:48;;;;;;;2.47;1.92;;;;;;;34.81;21.84;100295.88;5363319;33;33990;-86
2022/05/31 13:52:52;;;;;;;2.65;2.20;;;;;;;36.15;20.73;100305.69;5361165;33;34607;-85
2022/05/31 13:55:58;;;;;;;2.58;1.85;;;;;;;35.49;21.62;100298.31;5359548;33;34504;-85
2022/05/31 13:59:01;;;;;;;2.55;2.30;;;;;;;34.27;22.52;100293.78;5347283;33;31406;-84
2022/05/31 14:02:09;;;;;;;2.78;2.00;;;;;;;34.33;23.12;100302.00;5361763;33;34704;-86
2022/05/31 14:05:13;;;;;;;3.00;2.15;;;;;;;32.84;24.26;100284.13;5351675;33;32242;-84
2022/05/31 14:08:29;;;;;;;3.40;2.60;;;;;;;31.47;25.70;100295.44;5348856;33;32285;-84
2022/05/31 14:11:41;;;;;;;2.50;2.20;;;;;;;29.84;28.36;100298.13;5359822;33;33945;-84
2022/05/31 14:14:48;;;;;;;3.08;2.40;;;;;;;28.65;30.34;100301.28;5356165;33;33853;-84
2022/05/31 14:18:07;;;;;;;3.05;2.50;;;;;;;27.73;31.75;100291.37;5361231;33;34711;-84
2022/05/31 14:21:11;;;;;;;2.87;2.50;;;;;;;27.07;33.08;100287.31;5353325;33;33980;-85
2022/05/31 14:24:20;;;;;;;3.15;2.62;;;;;;;26.58;33.48;100282.72;5357164;33;34723;-84
2022/05/31 14:27:26;;;;;;;5.57;3.08;;;;;;;26.09;34.80;100283.56;5360901;33;33519;-84
2022/05/31 14:30:33;;;;;;;3.28;2.60;;;;;;;25.85;36.16;100275.09;5360500;33;33927;-84
2022/05/31 14:33:36;;;;;;;3.65;2.60;;;;;;;25.72;36.39;100282.03;5359754;33;33937;-84
2022/05/31 14:36:39;;;;;;;3.62;2.90;;;;;;;25.38;36.14;100267.22;5347640;33;32769;-84
2022/05/31 14:39:48;;;;;;;4.03;2.62;;;;;;;25.14;36.97;100272.50;5347148;33;33067;-84
2022/05/31 14:43:06;;;;;;;2.78;2.55;;;;;;;24.61;38.46;100264.50;5360687;33;34758;-83
2022/05/31 14:46:24;;;;;;;2.85;2.58;;;;;;;24.66;38.47;100261.75;5361659;33;33958;-88
2022/05/31 14:49:28;;;;;;;2.72;2.53;;;;;;;24.79;38.70;100263.13;5346655;33;33280;-83
2022/05/31 14:52:44;;;;;;;4.68;2.50;;;;;;;24.71;38.35;100260.91;5339484;33;34694;-83
2022/05/31 14:55:48;;;;;;;2.20;2.00;;;;;;;24.49;39.65;100259.25;5354315;33;33720;-84
2022/05/31 14:59:00;;;;;;;2.15;1.92;;;;;;;24.44;40.36;100260.06;5358729;33;34193;-83
2022/05/31 15:02:16;;;;;;;2.12;2.00;;;;;;;23.98;40.33;100259.09;5358919;33;34769;-84
2022/05/31 15:05:25;;;;;;;1.65;1.55;;;;;;;23.92;40.39;100254.66;5353210;33;35187;-84
2022/05/31 15:08:30;;;;;;;2.47;2.28;;;;;;;23.88;41.51;100240.63;5360769;33;35107;-83
2022/05/31 15:21:40;;;;;;;1.70;1.60;;;;;;;23.73;40.83;100235.91;5377766;33;34860;-84
2022/05/31 15:24:49;;;;;;;1.73;1.62;;;;;;;23.64;40.33;100242.16;5379005;33;35141;-83
2022/05/31 15:27:53;;;;;;;1.85;1.65;;;;;;;23.50;40.50;100231.66;5361735;33;32579;-88
2022/05/31 15:30:56;;;;;;;1.08;1.08;;;;;;;23.31;42.07;100231.28;5347804;33;33536;-88
2022/05/31 15:34:19;;;;;;;2.10;1.10;;;;;;;23.34;41.69;100238.13;5370756;33;34182;-84
2022/05/31 15:37:26;;;;;;;1.08;1.08;;;;;;;23.20;41.88;100232.31;5365908;33;33242;-84
2022/05/31 15:40:28;;;;;;;1.10;1.10;;;;;;;23.22;41.70;100238.34;5373258;33;34275;-84
2022/05/31 15:46:53;;;;;;;2.05;1.30;;;;;;;23.07;42.16;100233.56;5363308;33;32320;-84
2022/05/31 15:49:56;;;;;;;2.25;1.40;;;;;;;23.02;42.19;100230.81;5355426;33;32509;-84
2022/05/31 15:52:59;;;;;;;1.10;1.08;;;;;;;22.90;42.81;100232.06;5360015;33;34418;-84
2022/05/31 15:56:02;;;;;;;1.17;1.15;;;;;;;22.89;42.92;100230.41;5359485;33;34818;-84
